Chatham, Mississippi
Current Conditions -  °F | °C
As of 9:53 AM on Friday 24 Oct 2014 (Local Time) from KGLH Reporting Station
Clear Clear  
Wind Chill: 60°   Ceiling: Unl
Heat Index: 60°   Visibility: 10mi
Dew Point: 50°   Wind: 6mph
Humidity: 69%   Direction: 360°N
Pressure: 30.18"   Gusts: NA
Location:  33.1°N, 91.1°W
Report Text: KGLH 241453Z AUTO 36005KT 10SM CLR 16/10 A3018 RMK AO2 SLP226 T01560100 51012
Loading
Personal Weather Stations






























Interactive Weather Map
Tropical Storm Tracking
New forecast layout! Learn more

10-Day Weather Forecast

Advertisements
Track Severe Weather on mobile